Time;durP1;ratioP1;P1;durP2;ratioP2;P2;SDS_P1;SDS_P2;PMS_P1;PMS_P2;Temp;Humidity;BMP_temperature;BMP_pressure;BME280_temperature;BME280_humidity;BME280_pressure;Samples;Min_cycle;Max_cycle;Signal;HPM_P1;HPM_P2
2021/06/26 00:02:07;;;;;;;17.52;11.88;;;;;;;26.16;76.03;100140.69;5039167;28;20100;-78
2021/06/26 00:04:33;;;;;;;21.40;11.05;;;;;;;26.12;77.34;100162.84;5045008;28;20032;-76
2021/06/26 00:06:58;;;;;;;18.73;12.00;;;;;;;26.11;77.49;100166.44;5048916;28;20020;-76
2021/06/26 00:09:24;;;;;;;18.17;11.57;;;;;;;26.12;77.32;100162.84;5035887;28;20022;-76
2021/06/26 00:11:49;;;;;;;21.73;12.10;;;;;;;26.02;77.94;100161.38;5031328;28;20037;-76
2021/06/26 00:14:16;;;;;;;17.35;11.48;;;;;;;25.97;77.63;100158.88;5031579;28;20117;-76
2021/06/26 00:16:42;;;;;;;19.55;12.00;;;;;;;26.07;77.21;100165.66;5035814;28;20021;-76
2021/06/26 00:19:07;;;;;;;20.65;12.57;;;;;;;26.23;77.82;100176.63;5039963;28;20529;-76
2021/06/26 00:21:33;;;;;;;28.90;16.10;;;;;;;26.04;77.74;100127.81;5031294;28;20064;-75
2021/06/26 00:23:58;;;;;;;18.88;11.68;;;;;;;26.39;76.30;100154.91;5045943;28;20028;-76
2021/06/26 00:26:26;;;;;;;24.63;11.23;;;;;;;26.47;75.69;100152.88;4982614;28;20511;-76
2021/06/26 00:28:51;;;;;;;18.75;11.63;;;;;;;26.76;75.61;100172.22;4987201;28;20036;-76
2021/06/26 00:31:18;;;;;;;15.73;11.55;;;;;;;26.74;75.51;100144.91;4987194;28;20637;-76
2021/06/26 00:33:44;;;;;;;20.98;11.45;;;;;;;27.01;75.88;100160.75;4987139;28;20022;-76
2021/06/26 00:36:11;;;;;;;18.92;10.70;;;;;;;26.95;75.25;100148.56;4988209;28;20601;-77
2021/06/26 00:38:37;;;;;;;26.95;11.80;;;;;;;26.87;75.91;100155.97;4986122;28;20022;-76
2021/06/26 00:41:17;;;;;;;24.90;11.95;;;;;;;27.03;75.94;100161.53;4986641;28;20696;-76
2021/06/26 00:43:44;;;;;;;26.40;11.38;;;;;;;27.17;75.12;100164.56;4888922;29;20036;-77
2021/06/26 00:46:10;;;;;;;24.95;11.50;;;;;;;27.17;75.15;100166.34;4892404;29;20029;-76
2021/06/26 00:48:35;;;;;;;20.85;11.45;;;;;;;27.26;73.38;100166.00;4877792;29;20213;-76
2021/06/26 00:51:01;;;;;;;21.40;11.65;;;;;;;27.28;71.00;100164.16;4874821;29;20121;-76
2021/06/26 00:53:27;;;;;;;32.72;12.70;;;;;;;27.32;70.19;100152.53;4874467;29;20028;-76
2021/06/26 00:55:52;;;;;;;30.88;11.82;;;;;;;27.30;69.92;100143.75;4874704;29;20183;-77
2021/06/26 00:58:23;;;;;;;19.67;11.02;;;;;;;27.17;69.70;100122.16;4907415;29;20044;-76
2021/06/26 01:00:50;;;;;;;17.95;10.00;;;;;;;27.39;68.97;100147.84;4912362;29;20046;-76
2021/06/26 01:03:16;;;;;;;23.95;10.93;;;;;;;27.17;69.31;100148.66;4914956;29;20067;-75
2021/06/26 01:05:41;;;;;;;20.73;10.30;;;;;;;26.91;70.20;100152.28;4925828;29;20071;-75
2021/06/26 01:08:07;;;;;;;22.10;11.27;;;;;;;26.63;70.72;100146.13;4924047;29;20032;-75
2021/06/26 01:10:33;;;;;;;19.92;10.95;;;;;;;26.09;71.81;100157.66;4930340;29;20035;-75
2021/06/26 01:12:58;;;;;;;16.70;10.75;;;;;;;25.94;72.67;100164.28;4925152;29;20067;-76
2021/06/26 01:15:24;;;;;;;17.55;10.70;;;;;;;25.46;74.34;100177.19;4928734;29;20114;-76
2021/06/26 01:17:49;;;;;;;23.58;12.05;;;;;;;25.36;74.72;100178.34;4920872;29;20126;-74
2021/06/26 01:20:16;;;;;;;22.60;12.35;;;;;;;25.60;74.58;100155.63;4912372;29;20038;-74
2021/06/26 01:22:45;;;;;;;21.83;11.27;;;;;;;25.88;73.25;100132.75;4912201;29;20035;-73
2021/06/26 01:25:17;;;;;;;21.80;11.27;;;;;;;26.07;72.79;100136.56;4912094;29;20597;-72
2021/06/26 01:27:43;;;;;;;21.40;12.10;;;;;;;26.10;71.90;100133.78;4911954;29;20421;-74
2021/06/26 01:30:11;;;;;;;21.45;10.80;;;;;;;26.27;70.61;100132.38;4881122;29;20032;-73
2021/06/26 01:32:38;;;;;;;20.00;11.32;;;;;;;26.43;70.27;100123.00;4912163;29;20107;-74
2021/06/26 01:35:05;;;;;;;20.45;11.10;;;;;;;26.40;69.69;100106.38;4947241;29;20082;-73
2021/06/26 01:37:31;;;;;;;17.17;10.90;;;;;;;26.34;68.58;100080.13;4950153;29;20046;-74
2021/06/26 01:39:57;;;;;;;23.55;10.90;;;;;;;26.53;68.49;100088.25;4949935;29;20069;-73
2021/06/26 01:42:22;;;;;;;20.80;10.43;;;;;;;26.76;68.11;100108.66;4950217;28;20032;-73
2021/06/26 01:44:48;;;;;;;18.15;10.60;;;;;;;26.90;67.56;100113.44;4952709;29;20031;-73
2021/06/26 01:47:13;;;;;;;20.15;10.27;;;;;;;26.82;67.99;100115.50;4953876;29;20032;-73
2021/06/26 01:49:39;;;;;;;15.85;10.80;;;;;;;26.76;67.34;100084.81;4953832;28;20097;-73
2021/06/26 01:52:09;;;;;;;18.33;10.25;;;;;;;26.94;67.50;100121.25;4953623;29;20120;-73
2021/06/26 01:54:34;;;;;;;18.90;11.05;;;;;;;26.83;69.23;100110.19;4953424;28;20126;-73
2021/06/26 01:56:59;;;;;;;17.35;10.82;;;;;;;26.35;72.42;100082.69;4953758;29;20121;-72
2021/06/26 01:59:25;;;;;;;20.02;11.77;;;;;;;26.19;72.75;100063.84;4984649;28;20057;-72
2021/06/26 02:01:50;;;;;;;17.52;10.82;;;;;;;26.40;71.51;100093.13;5034125;28;20609;-72
2021/06/26 02:04:17;;;;;;;19.95;11.30;;;;;;;26.44;70.67;100103.56;5016677;28;20029;-72
2021/06/26 02:06:42;;;;;;;16.50;11.57;;;;;;;26.50;69.84;100110.41;5034097;28;20025;-73
2021/06/26 02:09:12;;;;;;;21.85;11.25;;;;;;;26.63;68.64;100106.41;5033412;28;20090;-72
2021/06/26 02:11:38;;;;;;;18.75;11.63;;;;;;;26.53;68.74;100097.09;5033786;28;20045;-72
2021/06/26 02:14:04;;;;;;;19.30;10.25;;;;;;;26.35;69.18;100085.34;5033898;28;20091;-73
2021/06/26 02:16:29;;;;;;;18.33;11.02;;;;;;;25.88;69.38;100014.59;5033670;28;20483;-73
2021/06/26 02:18:55;;;;;;;18.55;11.00;;;;;;;26.42;68.54;100093.94;5033672;28;20026;-76
2021/06/26 02:21:22;;;;;;;18.73;11.82;;;;;;;26.39;68.60;100088.75;5033248;28;20048;-73
2021/06/26 02:23:47;;;;;;;21.27;11.63;;;;;;;26.29;69.05;100099.66;5033268;28;20376;-73
2021/06/26 02:26:13;;;;;;;20.48;11.13;;;;;;;26.27;69.12;100097.97;5033768;28;20025;-72
2021/06/26 02:28:38;;;;;;;20.70;11.77;;;;;;;26.16;69.32;100101.84;5033404;28;20459;-73
2021/06/26 02:31:04;;;;;;;19.27;11.57;;;;;;;26.04;69.50;100098.72;5033569;28;20511;-74
2021/06/26 02:33:29;;;;;;;17.35;11.15;;;;;;;25.76;69.58;100068.75;5032433;28;20040;-73
2021/06/26 02:35:55;;;;;;;19.08;11.80;;;;;;;25.99;69.71;100110.34;5032119;28;20112;-72
2021/06/26 02:38:23;;;;;;;19.83;11.13;;;;;;;25.90;69.79;100099.19;5032993;28;20076;-73
2021/06/26 02:40:49;;;;;;;19.08;10.98;;;;;;;26.12;69.50;100125.81;5033162;28;20026;-73
2021/06/26 02:43:14;;;;;;;22.38;11.70;;;;;;;25.85;70.29;100125.78;5032720;28;20035;-75
2021/06/26 02:45:40;;;;;;;21.80;12.40;;;;;;;25.61;71.56;100149.44;5032871;28;20498;-74
2021/06/26 02:48:06;;;;;;;25.23;13.38;;;;;;;25.12;73.21;100133.22;5032955;28;20076;-74
2021/06/26 02:50:31;;;;;;;17.52;12.05;;;;;;;24.93;74.60;100151.34;5032703;28;20053;-74
2021/06/26 02:52:57;;;;;;;17.83;11.98;;;;;;;24.77;75.91;100152.69;5032935;28;20072;-74
2021/06/26 02:55:22;;;;;;;22.95;12.95;;;;;;;24.45;76.04;100117.41;5032710;28;20028;-74
2021/06/26 02:57:48;;;;;;;24.67;13.23;;;;;;;24.26;77.95;100161.88;5032743;28;20061;-74
2021/06/26 03:00:14;;;;;;;24.85;13.73;;;;;;;23.85;78.19;100094.25;5032699;28;20017;-74
2021/06/26 03:02:40;;;;;;;23.50;13.68;;;;;;;24.48;77.57;100178.03;5032846;28;20056;-76
2021/06/26 03:05:06;;;;;;;23.67;13.48;;;;;;;24.39;78.29;100176.50;5033013;28;20026;-74
2021/06/26 03:07:32;;;;;;;23.95;14.20;;;;;;;24.30;78.96;100174.06;5032442;28;20382;-74
2021/06/26 03:09:57;;;;;;;21.90;13.38;;;;;;;24.51;78.74;100164.75;5032865;28;20029;-75
2021/06/26 03:12:23;;;;;;;19.05;13.48;;;;;;;24.59;77.61;100125.84;5032662;28;20048;-72
2021/06/26 03:14:48;;;;;;;22.90;12.98;;;;;;;24.84;77.15;100165.66;5032472;28;20027;-72
2021/06/26 03:17:14;;;;;;;23.15;13.13;;;;;;;24.82;78.03;100161.34;5032642;28;20156;-75
2021/06/26 03:19:40;;;;;;;25.90;12.70;;;;;;;24.98;77.77;100161.78;5007959;28;20021;-75
2021/06/26 03:22:06;;;;;;;20.75;12.43;;;;;;;25.10;76.35;100160.59;5032014;28;20017;-74
2021/06/26 03:24:31;;;;;;;22.73;12.02;;;;;;;25.08;75.50;100141.28;5032617;28;20392;-72
2021/06/26 03:26:57;;;;;;;27.02;12.13;;;;;;;25.28;74.71;100143.34;5032428;28;20024;-72
2021/06/26 03:29:23;;;;;;;20.38;12.13;;;;;;;25.32;73.68;100137.94;5032177;28;20036;-74
2021/06/26 03:31:49;;;;;;;20.75;12.20;;;;;;;25.22;73.71;100117.94;5032190;28;20021;-76
2021/06/26 03:34:14;;;;;;;24.23;12.43;;;;;;;25.39;73.67;100137.78;5032371;28;20104;-74
2021/06/26 03:36:40;;;;;;;18.67;12.55;;;;;;;25.17;73.33;100094.34;4980649;28;20033;-74
2021/06/26 03:39:06;;;;;;;23.63;12.80;;;;;;;25.30;73.78;100123.88;5032186;28;20021;-74
2021/06/26 03:41:31;;;;;;;22.95;12.93;;;;;;;25.14;74.69;100126.09;5032188;28;20022;-74
2021/06/26 03:43:58;;;;;;;20.58;12.75;;;;;;;25.14;74.82;100125.25;5031824;28;20456;-75
2021/06/26 03:46:28;;;;;;;20.02;12.68;;;;;;;25.03;74.91;100125.56;5031961;28;20472;-74
2021/06/26 03:48:53;;;;;;;;;;;;;;;25.13;74.92;100137.56;5032366;28;20483;-74
2021/06/26 03:51:19;;;;;;;24.80;13.18;;;;;;;25.29;73.72;100121.28;5031540;28;19909;-74
2021/06/26 03:53:46;;;;;;;21.90;13.27;;;;;;;25.35;72.80;100102.63;5031730;28;20423;-75
2021/06/26 03:56:12;;;;;;;19.55;12.85;;;;;;;25.52;72.88;100137.34;5031744;28;20118;-75
2021/06/26 03:58:38;;;;;;;22.65;13.63;;;;;;;25.38;72.66;100101.69;4970407;28;20037;-74
2021/06/26 04:01:04;;;;;;;19.15;13.95;;;;;;;25.59;72.68;100143.31;4971113;28;20495;-74
2021/06/26 04:03:29;;;;;;;26.58;14.57;;;;;;;25.58;72.93;100149.50;4970607;28;20046;-77
2021/06/26 04:05:55;;;;;;;24.55;14.98;;;;;;;25.47;73.25;100138.41;4968601;28;20031;-75
2021/06/26 04:08:20;;;;;;;22.08;14.98;;;;;;;25.59;73.12;100153.88;4970564;28;20035;-76
2021/06/26 04:10:46;;;;;;;24.13;15.30;;;;;;;25.71;73.25;100165.88;4970622;28;20063;-75
2021/06/26 04:13:11;;;;;;;22.73;15.10;;;;;;;25.71;74.25;100163.22;4970222;28;20046;-74
2021/06/26 04:15:37;;;;;;;29.63;16.25;;;;;;;25.73;75.73;100160.53;4968028;28;20122;-74
2021/06/26 04:18:03;;;;;;;42.78;16.35;;;;;;;25.76;77.99;100150.72;4969099;28;20042;-76
2021/06/26 04:20:28;;;;;;;29.95;13.45;;;;;;;25.83;77.79;100144.34;4970860;28;20065;-73
2021/06/26 04:22:54;;;;;;;35.30;14.68;;;;;;;25.78;77.83;100133.03;4970497;28;20031;-72
2021/06/26 04:25:20;;;;;;;29.50;14.13;;;;;;;25.69;78.49;100138.59;4970509;28;20524;-71
2021/06/26 04:27:46;;;;;;;29.05;14.95;;;;;;;25.64;79.33;100141.38;4970445;28;20033;-74
2021/06/26 04:30:13;;;;;;;23.30;14.77;;;;;;;25.13;80.14;100131.44;5015351;28;20040;-72
2021/06/26 04:32:40;;;;;;;27.17;15.00;;;;;;;25.20;80.79;100144.41;5013692;28;20054;-74
2021/06/26 04:35:09;;;;;;;34.53;16.67;;;;;;;25.11;80.66;100146.47;5031430;28;20468;-74
2021/06/26 04:37:35;;;;;;;34.13;15.93;;;;;;;25.17;80.17;100141.88;5031584;28;20033;-76
2021/06/26 04:40:01;;;;;;;31.58;16.10;;;;;;;25.39;79.09;100140.41;5031565;28;20029;-72
2021/06/26 04:42:27;;;;;;;30.20;15.73;;;;;;;25.55;77.93;100154.91;5031669;28;20107;-74
2021/06/26 04:44:53;;;;;;;31.00;16.17;;;;;;;25.59;77.37;100132.72;5031325;28;20067;-72
2021/06/26 04:47:19;;;;;;;28.80;16.75;;;;;;;25.31;74.87;100070.13;5031269;28;20020;-74
2021/06/26 04:49:44;;;;;;;31.20;18.00;;;;;;;25.82;75.37;100152.31;5031044;28;20360;-74
2021/06/26 04:52:10;;;;;;;36.97;17.27;;;;;;;25.76;76.14;100165.75;5031512;28;20021;-74
2021/06/26 04:54:36;;;;;;;32.45;17.08;;;;;;;25.74;77.03;100181.63;5031462;28;20029;-75
2021/06/26 04:57:02;;;;;;;40.45;22.52;;;;;;;25.45;79.06;100201.03;5031709;28;20053;-74
2021/06/26 04:59:28;;;;;;;35.13;20.92;;;;;;;25.23;81.31;100216.59;5031423;28;20535;-74
2021/06/26 05:01:53;;;;;;;38.95;19.52;;;;;;;25.04;82.21;100220.59;5031314;28;20017;-74
2021/06/26 05:04:20;;;;;;;37.83;19.58;;;;;;;24.46;86.54;100216.78;5031797;28;20017;-72
2021/06/26 05:06:45;;;;;;;70.35;36.97;;;;;;;24.31;86.96;100205.72;5031356;28;20104;-74
2021/06/26 05:09:11;;;;;;;37.35;20.08;;;;;;;24.10;87.38;100186.00;5031428;28;20391;-73
2021/06/26 05:11:36;;;;;;;35.80;18.10;;;;;;;24.30;86.35;100196.06;5031448;28;20523;-75
2021/06/26 05:14:02;;;;;;;39.45;18.17;;;;;;;24.28;85.44;100176.75;5031268;28;20037;-72
2021/06/26 05:16:28;;;;;;;28.02;15.90;;;;;;;24.53;84.42;100184.06;5030040;28;20052;-73
2021/06/26 05:18:53;;;;;;;28.08;15.88;;;;;;;24.59;83.95;100177.78;5032490;28;20025;-73
2021/06/26 05:21:19;;;;;;;26.85;16.85;;;;;;;24.71;83.59;100194.19;5034891;28;20018;-73
2021/06/26 05:23:45;;;;;;;28.05;16.15;;;;;;;24.41;83.45;100165.91;5034986;28;20112;-73
2021/06/26 05:26:11;;;;;;;60.33;32.70;;;;;;;24.74;83.93;100195.03;5035070;28;20025;-73
2021/06/26 05:28:37;;;;;;;45.83;25.08;;;;;;;24.90;81.48;100179.59;5034837;28;20029;-74
2021/06/26 05:31:03;;;;;;;34.45;17.73;;;;;;;24.94;80.46;100176.84;5034678;28;20056;-74
2021/06/26 05:33:29;;;;;;;27.10;16.05;;;;;;;25.14;79.96;100183.38;5000346;28;20037;-73
2021/06/26 05:35:55;;;;;;;22.95;15.88;;;;;;;25.25;78.43;100183.94;5034909;28;20585;-73
2021/06/26 05:38:20;;;;;;;33.17;17.70;;;;;;;25.22;78.08;100185.78;5034870;28;20095;-74
2021/06/26 05:40:46;;;;;;;25.40;16.38;;;;;;;25.33;78.52;100174.00;5034701;28;20108;-73
2021/06/26 05:43:12;;;;;;;26.70;15.95;;;;;;;25.64;76.99;100204.84;5034432;28;20052;-73
2021/06/26 05:45:37;;;;;;;29.90;16.60;;;;;;;25.86;76.96;100213.91;5034521;28;20091;-73
2021/06/26 05:48:03;;;;;;;68.95;46.70;;;;;;;25.97;76.40;100227.66;5034275;28;20017;-74
2021/06/26 05:50:28;;;;;;;117.90;53.28;;;;;;;25.83;76.80;100214.84;5034652;28;20021;-73
2021/06/26 05:52:56;;;;;;;312.25;159.02;;;;;;;25.98;76.29;100248.78;5034594;28;20017;-73
2021/06/26 05:55:23;;;;;;;353.75;232.10;;;;;;;25.87;76.79;100261.47;5034304;28;20553;-73
2021/06/26 05:57:49;;;;;;;146.95;74.60;;;;;;;25.63;78.11;100282.44;5034400;28;20025;-73
2021/06/26 06:00:16;;;;;;;126.40;73.78;;;;;;;25.30;78.94;100300.91;5034219;28;20083;-73
2021/06/26 06:02:42;;;;;;;162.35;73.70;;;;;;;25.07;79.90;100300.66;5034366;28;20026;-73
2021/06/26 06:05:08;;;;;;;137.38;59.38;;;;;;;24.98;81.53;100326.38;5034361;28;20087;-73
2021/06/26 06:07:38;;;;;;;34.20;16.10;;;;;;;24.81;76.64;100339.13;5034018;28;20021;-73
2021/06/26 06:10:04;;;;;;;33.95;14.55;;;;;;;24.17;73.69;100337.91;5034379;28;20064;-73
2021/06/26 06:12:33;;;;;;;43.03;15.68;;;;;;;23.94;71.41;100354.22;5034334;28;20064;-73
2021/06/26 06:14:58;;;;;;;22.05;7.28;;;;;;;23.52;70.96;100341.81;5032981;28;20453;-73
2021/06/26 06:17:24;;;;;;;16.02;5.25;;;;;;;23.49;71.88;100359.44;5033167;28;20108;-73
2021/06/26 06:19:49;;;;;;;22.60;5.65;;;;;;;23.22;72.95;100312.50;5030553;28;20025;-72
2021/06/26 06:22:15;;;;;;;13.98;3.28;;;;;;;23.11;73.08;100343.38;5024611;28;20075;-73
2021/06/26 06:24:40;;;;;;;13.65;3.13;;;;;;;22.84;72.94;100314.00;5029290;28;20372;-73
2021/06/26 06:27:06;;;;;;;9.45;3.25;;;;;;;22.85;74.03;100367.50;5032553;28;20020;-73
2021/06/26 06:29:32;;;;;;;15.23;2.92;;;;;;;22.80;76.40;100386.00;5033375;28;20018;-73
2021/06/26 06:31:57;;;;;;;13.40;3.30;;;;;;;22.71;78.29;100387.00;5033592;28;20025;-84
2021/06/26 11:58:02;;;;;;;11.38;2.97;;;;;;;30.04;50.43;100148.00;5081925;28;20051;-71
2021/06/26 12:00:28;;;;;;;8.40;3.10;;;;;;;30.25;49.28;100137.22;5090918;28;20417;-70
2021/06/26 12:02:53;;;;;;;8.13;3.28;;;;;;;30.53;49.33;100139.38;5089128;28;20405;-70
2021/06/26 12:05:20;;;;;;;14.35;3.85;;;;;;;30.54;49.66;100137.56;5089035;28;20028;-70
2021/06/26 12:07:45;;;;;;;8.60;3.03;;;;;;;30.45;47.19;100097.09;5087459;28;20020;-70
2021/06/26 12:10:12;;;;;;;9.73;3.13;;;;;;;30.60;48.17;100118.59;5089188;28;20020;-71
2021/06/26 12:12:40;;;;;;;7.28;3.25;;;;;;;30.60;48.06;100102.59;5085264;28;20051;-70
2021/06/26 12:15:09;;;;;;;6.97;3.10;;;;;;;30.37;48.33;100109.97;5086945;28;20024;-70
2021/06/26 12:17:34;;;;;;;8.35;3.28;;;;;;;30.33;48.23;100108.38;5086080;28;20033;-70
2021/06/26 12:20:01;;;;;;;9.95;3.90;;;;;;;30.46;47.62;100114.78;5069303;28;20033;-70
2021/06/26 12:22:28;;;;;;;8.10;3.38;;;;;;;30.31;50.28;100104.94;5083312;28;20024;-71
2021/06/26 12:25:08;;;;;;;10.02;3.45;;;;;;;30.33;50.07;100092.41;5088321;28;20020;-74
2021/06/26 12:27:34;;;;;;;7.75;3.47;;;;;;;30.40;48.25;100109.78;5091540;28;20068;-72
2021/06/26 12:30:02;;;;;;;10.00;3.40;;;;;;;30.76;47.50;100111.50;5086861;28;20396;-71
2021/06/26 12:32:33;;;;;;;10.00;3.72;;;;;;;30.85;46.49;100110.13;5089029;28;20063;-71
2021/06/26 12:34:59;;;;;;;8.70;3.40;;;;;;;30.90;45.66;100083.25;5092560;28;20024;-71
2021/06/26 12:37:32;;;;;;;8.75;3.92;;;;;;;30.78;48.20;100090.97;5072188;28;20028;-72
2021/06/26 12:40:16;;;;;;;9.30;3.17;;;;;;;30.80;46.48;100104.19;5088509;28;20032;-70
2021/06/26 12:43:12;;;;;;;12.52;3.75;;;;;;;30.74;45.48;100092.06;5087579;28;20066;-72
2021/06/26 12:45:49;;;;;;;7.68;3.00;;;;;;;30.79;46.69;100106.03;5087198;28;20028;-72
2021/06/26 12:48:25;;;;;;;8.32;3.28;;;;;;;30.78;46.55;100106.97;5088540;28;20031;-72
2021/06/26 12:51:08;;;;;;;9.27;3.20;;;;;;;30.74;47.29;100099.19;5087081;28;20436;-72
2021/06/26 12:53:41;;;;;;;8.10;3.08;;;;;;;30.82;46.90;100091.66;5069952;28;20082;-72
2021/06/26 12:56:18;;;;;;;9.95;3.60;;;;;;;30.98;46.78;100091.69;5087022;28;20432;-71
2021/06/26 12:59:05;;;;;;;9.05;3.80;;;;;;;31.12;48.31;100093.63;5081233;28;20036;-72
2021/06/26 13:01:43;;;;;;;11.35;3.53;;;;;;;31.24;45.06;100086.75;5089837;28;20039;-72
2021/06/26 13:04:21;;;;;;;10.25;3.22;;;;;;;31.35;47.94;100079.00;5085022;28;20029;-72
2021/06/26 13:06:59;;;;;;;6.55;3.40;;;;;;;31.52;47.56;100074.53;5079803;28;20024;-72
2021/06/26 13:09:37;;;;;;;11.32;4.18;;;;;;;31.26;46.69;100085.72;5076715;28;20481;-72
2021/06/26 13:12:09;;;;;;;12.00;3.75;;;;;;;31.46;45.78;100079.25;5078422;28;20087;-72
2021/06/26 13:14:39;;;;;;;13.07;4.38;;;;;;;31.46;46.81;100078.41;5084671;28;20032;-73
2021/06/26 13:17:05;;;;;;;11.73;3.90;;;;;;;31.64;46.70;100073.88;5076259;28;20024;-73
2021/06/26 13:19:31;;;;;;;10.38;3.95;;;;;;;31.47;47.74;100056.13;5074948;28;20397;-72
2021/06/26 13:21:56;;;;;;;11.98;3.40;;;;;;;31.38;48.37;100052.16;5074128;28;20028;-72
2021/06/26 13:24:22;;;;;;;9.30;3.70;;;;;;;31.52;47.67;100053.19;5077390;28;20484;-72
2021/06/26 13:26:48;;;;;;;12.18;3.72;;;;;;;31.34;47.58;100037.31;5074027;28;20525;-72
2021/06/26 13:29:14;;;;;;;9.63;3.30;;;;;;;31.64;47.81;100048.97;5077354;28;20028;-72
2021/06/26 13:31:39;;;;;;;9.77;3.85;;;;;;;31.55;46.75;100021.00;5055791;28;20017;-73
2021/06/26 13:34:05;;;;;;;7.63;3.50;;;;;;;31.49;48.21;100034.69;5016790;28;20131;-70
2021/06/26 13:36:31;;;;;;;10.50;3.72;;;;;;;31.32;48.15;100027.63;5075007;28;20107;-71
2021/06/26 13:38:56;;;;;;;12.10;3.70;;;;;;;31.50;46.97;100031.91;5074399;28;20032;-71
2021/06/26 13:41:22;;;;;;;12.40;3.13;;;;;;;31.61;46.76;100028.63;5080536;28;20060;-72
2021/06/26 13:43:49;;;;;;;11.30;3.97;;;;;;;31.57;48.70;100024.44;5077356;28;20035;-71
2021/06/26 13:46:14;;;;;;;10.40;3.80;;;;;;;31.52;49.27;100023.84;5080718;28;20058;-71
2021/06/26 13:48:40;;;;;;;7.78;3.55;;;;;;;31.51;49.27;100017.63;5091454;28;20060;-72
2021/06/26 13:51:05;;;;;;;12.02;3.80;;;;;;;31.66;49.56;100017.75;5058589;28;20473;-72
2021/06/26 13:53:31;;;;;;;11.02;3.63;;;;;;;31.72;49.57;100006.69;5094397;28;20106;-73
2021/06/26 13:55:57;;;;;;;9.32;3.55;;;;;;;31.89;47.56;100003.00;5094727;28;20028;-72
2021/06/26 13:58:22;;;;;;;9.10;3.58;;;;;;;31.96;46.70;100003.53;5094053;28;20036;-72
2021/06/26 14:00:49;;;;;;;8.38;3.17;;;;;;;31.80;47.49;99971.53;5086355;28;20559;-72
2021/06/26 14:03:14;;;;;;;9.63;3.63;;;;;;;32.04;46.73;99999.44;5073875;28;20107;-72
2021/06/26 14:05:40;;;;;;;10.68;3.65;;;;;;;31.64;47.36;99985.81;5056249;28;20439;-72
2021/06/26 14:08:08;;;;;;;11.40;3.95;;;;;;;31.84;46.47;99989.09;5074520;28;20032;-72
2021/06/26 14:10:34;;;;;;;9.32;3.50;;;;;;;31.72;47.05;99950.66;5074497;28;20036;-72
2021/06/26 14:13:00;;;;;;;9.85;3.50;;;;;;;31.91;47.70;99985.94;5074576;28;20020;-72
2021/06/26 14:15:26;;;;;;;9.85;3.67;;;;;;;31.87;47.26;99970.22;5082292;28;20110;-72
2021/06/26 14:17:51;;;;;;;8.98;3.60;;;;;;;31.99;46.40;99977.50;5088658;28;20477;-72
2021/06/26 14:20:20;;;;;;;9.65;3.75;;;;;;;32.04;46.63;99985.22;5093101;28;20031;-72
2021/06/26 14:22:46;;;;;;;10.40;3.65;;;;;;;31.86;46.57;99982.69;5077652;28;20029;-72
2021/06/26 14:25:12;;;;;;;9.73;3.88;;;;;;;31.68;47.43;99984.69;5075738;28;20032;-72
2021/06/26 14:27:38;;;;;;;8.38;3.65;;;;;;;31.62;47.50;99993.84;5036704;28;20036;-72
2021/06/26 14:30:09;;;;;;;10.27;3.60;;;;;;;31.64;49.13;99977.81;5089139;28;20069;-72
2021/06/26 14:32:35;;;;;;;12.45;3.97;;;;;;;31.89;47.98;100000.34;5090179;28;20024;-72
2021/06/26 14:35:02;;;;;;;11.07;3.65;;;;;;;31.77;47.49;99977.94;5087712;28;20401;-73
2021/06/26 14:37:28;;;;;;;10.73;3.40;;;;;;;31.66;48.22;99994.56;5090257;28;20024;-72
2021/06/26 14:39:54;;;;;;;8.98;3.72;;;;;;;31.51;48.97;99990.13;5087086;28;20031;-72
2021/06/26 14:42:21;;;;;;;13.25;3.65;;;;;;;31.35;49.35;99969.66;5079584;28;20029;-73
2021/06/26 14:44:48;;;;;;;7.90;3.85;;;;;;;31.43;49.51;99986.06;5080721;28;20031;-73
2021/06/26 14:47:13;;;;;;;10.88;3.78;;;;;;;31.47;49.84;99978.75;5082789;28;20024;-72
2021/06/26 14:49:39;;;;;;;9.55;3.80;;;;;;;31.37;49.80;99965.09;5075680;28;20031;-73
2021/06/26 14:52:06;;;;;;;9.93;4.45;;;;;;;31.36;50.09;99976.72;5093025;28;20390;-72
2021/06/26 14:54:31;;;;;;;7.95;4.03;;;;;;;31.38;50.57;99984.59;5093674;28;20031;-72
2021/06/26 14:56:57;;;;;;;8.70;3.90;;;;;;;31.25;51.13;99987.13;5093290;28;20401;-73
2021/06/26 14:59:23;;;;;;;14.45;4.63;;;;;;;31.19;51.34;99974.16;5075315;28;20393;-73
2021/06/26 15:01:48;;;;;;;10.25;4.63;;;;;;;31.32;50.78;99972.50;5093247;28;20032;-73
2021/06/26 15:04:14;;;;;;;12.25;4.45;;;;;;;31.30;51.73;99953.06;5093214;28;20443;-72
2021/06/26 15:06:43;;;;;;;10.43;3.90;;;;;;;31.37;50.79;99959.75;5093061;28;20089;-73
2021/06/26 15:09:09;;;;;;;14.88;4.95;;;;;;;31.26;51.00;99951.53;5093105;28;20465;-72
2021/06/26 15:11:39;;;;;;;10.95;4.80;;;;;;;31.29;51.29;99948.66;5093346;28;20111;-73
2021/06/26 15:14:05;;;;;;;12.40;5.50;;;;;;;31.32;51.03;99940.50;5070869;28;20062;-73
2021/06/26 15:16:31;;;;;;;10.00;4.43;;;;;;;31.31;51.48;99941.44;5078570;28;20076;-72
2021/06/26 15:18:56;;;;;;;11.52;4.57;;;;;;;31.33;50.94;99923.56;5085296;28;20466;-72
2021/06/26 15:21:23;;;;;;;7.85;4.30;;;;;;;31.53;51.59;99946.38;5081427;28;20028;-73
2021/06/26 15:23:50;;;;;;;12.43;4.43;;;;;;;31.37;52.13;99951.75;5085268;28;20020;-74
2021/06/26 15:26:16;;;;;;;13.90;5.03;;;;;;;31.49;51.89;99944.84;5064378;28;20029;-73
2021/06/26 15:28:43;;;;;;;14.15;4.20;;;;;;;31.71;51.17;99947.13;5078364;28;20028;-74
2021/06/26 15:31:11;;;;;;;11.88;5.03;;;;;;;31.45;52.18;99928.16;5093018;28;20030;-73
2021/06/26 15:33:37;;;;;;;9.35;4.25;;;;;;;31.27;54.56;99919.44;5093479;28;20032;-73
2021/06/26 15:36:03;;;;;;;12.05;4.38;;;;;;;31.16;54.17;99915.69;5092921;28;20024;-73
2021/06/26 15:38:29;;;;;;;9.43;4.68;;;;;;;31.28;53.85;99931.81;5074951;28;20093;-72
2021/06/26 15:40:56;;;;;;;13.48;5.07;;;;;;;31.31;53.62;99936.13;5066593;28;20020;-70
2021/06/26 15:43:23;;;;;;;13.25;4.93;;;;;;;31.01;53.12;99896.06;5083495;28;20064;-71
2021/06/26 15:45:49;;;;;;;11.88;4.47;;;;;;;31.41;52.05;99926.63;5085918;28;20787;-73
2021/06/26 15:48:15;;;;;;;16.00;5.07;;;;;;;31.68;51.54;99936.63;5092899;28;20023;-71
2021/06/26 15:50:41;;;;;;;12.70;5.03;;;;;;;31.57;51.32;99915.06;5093289;28;20031;-73
2021/06/26 15:53:08;;;;;;;10.00;4.60;;;;;;;31.76;52.09;99942.34;5091870;28;20028;-74
2021/06/26 15:55:34;;;;;;;8.25;4.05;;;;;;;31.73;51.63;99950.56;5091662;28;20036;-71
2021/06/26 15:57:59;;;;;;;13.23;5.20;;;;;;;31.73;51.90;99939.88;5091218;28;20063;-74
2021/06/26 16:00:25;;;;;;;9.43;4.30;;;;;;;31.70;51.83;99896.50;5093508;28;20063;-71
2021/06/26 16:02:51;;;;;;;10.30;4.30;;;;;;;31.80;51.79;99945.69;5092666;28;20023;-73
2021/06/26 16:05:16;;;;;;;15.93;5.15;;;;;;;31.83;51.46;99944.66;5091512;28;20028;-71
2021/06/26 16:07:45;;;;;;;9.20;4.10;;;;;;;31.75;52.26;99956.69;5091242;28;20016;-73
2021/06/26 16:10:12;;;;;;;9.23;4.20;;;;;;;31.84;50.95;99968.59;5057434;28;20094;-73
2021/06/26 16:12:38;;;;;;;17.75;5.28;;;;;;;31.80;51.00;99968.88;5089539;28;20063;-73
2021/06/26 16:15:06;;;;;;;10.52;4.47;;;;;;;31.78;51.13;99969.81;5086257;28;20039;-73
2021/06/26 16:17:32;;;;;;;8.18;4.30;;;;;;;31.51;51.06;99936.75;5091719;28;20024;-72
2021/06/26 16:19:57;;;;;;;8.60;4.68;;;;;;;31.65;51.29;99965.31;5091400;28;20031;-72
2021/06/26 16:22:23;;;;;;;15.73;5.07;;;;;;;31.71;53.69;99964.94;5070219;28;20024;-71
2021/06/26 16:24:48;;;;;;;14.02;5.15;;;;;;;31.75;52.76;99970.03;5072988;28;20081;-71
2021/06/26 16:27:35;;;;;;;8.98;4.63;;;;;;;31.83;51.93;99974.00;5059207;28;20048;-72
2021/06/26 16:30:01;;;;;;;10.73;4.57;;;;;;;31.89;51.36;99973.66;5057845;28;20172;-73
2021/06/26 16:32:27;;;;;;;12.90;5.00;;;;;;;31.94;52.59;99971.59;5042386;28;20490;-71
2021/06/26 16:34:53;;;;;;;10.85;4.80;;;;;;;31.94;54.40;99956.41;5058568;28;20036;-73
2021/06/26 16:37:28;;;;;;;12.75;5.22;;;;;;;31.96;56.98;99961.66;5040567;28;20044;-73
2021/06/26 16:39:53;;;;;;;16.02;4.82;;;;;;;31.92;55.68;99962.81;5058343;28;20023;-73